sensor_id;sensor_type;location;lat;lon;timestamp;P1;durP1;ratioP1;P2;durP2;ratioP2
4430;SDS011;2228;48.140;11.488;2023-06-10T00:00:07;7.60;;;6.35;;
4430;SDS011;2228;48.140;11.488;2023-06-10T00:02:39;7.05;;;6.03;;
4430;SDS011;2228;48.140;11.488;2023-06-10T00:05:06;7.43;;;5.78;;
4430;SDS011;2228;48.140;11.488;2023-06-10T00:07:34;6.55;;;5.85;;
4430;SDS011;2228;48.140;11.488;2023-06-10T00:10:03;7.60;;;6.13;;
4430;SDS011;2228;48.140;11.488;2023-06-10T00:12:31;9.02;;;5.80;;
4430;SDS011;2228;48.140;11.488;2023-06-10T00:15:02;6.00;;;5.40;;
4430;SDS011;2228;48.140;11.488;2023-06-10T00:17:29;7.07;;;5.43;;
4430;SDS011;2228;48.140;11.488;2023-06-10T00:19:59;6.70;;;5.40;;
4430;SDS011;2228;48.140;11.488;2023-06-10T00:22:30;8.10;;;6.03;;
4430;SDS011;2228;48.140;11.488;2023-06-10T00:24:57;7.55;;;6.15;;
4430;SDS011;2228;48.140;11.488;2023-06-10T00:27:24;7.77;;;5.93;;
4430;SDS011;2228;48.140;11.488;2023-06-10T00:29:56;8.10;;;5.50;;
4430;SDS011;2228;48.140;11.488;2023-06-10T00:32:23;7.00;;;5.90;;
4430;SDS011;2228;48.140;11.488;2023-06-10T00:34:50;8.57;;;5.50;;
4430;SDS011;2228;48.140;11.488;2023-06-10T00:37:18;7.22;;;5.70;;
4430;SDS011;2228;48.140;11.488;2023-06-10T00:39:45;6.18;;;5.57;;
4430;SDS011;2228;48.140;11.488;2023-06-10T00:42:12;6.60;;;5.80;;
4430;SDS011;2228;48.140;11.488;2023-06-10T00:44:39;8.03;;;6.70;;
4430;SDS011;2228;48.140;11.488;2023-06-10T00:47:07;7.82;;;6.18;;
4430;SDS011;2228;48.140;11.488;2023-06-10T00:49:34;8.90;;;7.10;;
4430;SDS011;2228;48.140;11.488;2023-06-10T00:52:01;8.55;;;7.10;;
4430;SDS011;2228;48.140;11.488;2023-06-10T00:54:32;8.20;;;6.90;;
4430;SDS011;2228;48.140;11.488;2023-06-10T00:57:00;8.90;;;7.10;;
4430;SDS011;2228;48.140;11.488;2023-06-10T00:59:27;9.02;;;6.50;;
4430;SDS011;2228;48.140;11.488;2023-06-10T01:01:56;7.90;;;6.80;;
4430;SDS011;2228;48.140;11.488;2023-06-10T01:04:23;8.33;;;6.80;;
4430;SDS011;2228;48.140;11.488;2023-06-10T01:06:51;8.40;;;6.72;;
4430;SDS011;2228;48.140;11.488;2023-06-10T01:09:23;8.60;;;7.57;;
4430;SDS011;2228;48.140;11.488;2023-06-10T01:12:00;8.48;;;7.10;;
4430;SDS011;2228;48.140;11.488;2023-06-10T01:14:35;8.35;;;6.97;;
4430;SDS011;2228;48.140;11.488;2023-06-10T01:17:03;11.63;;;7.40;;
4430;SDS011;2228;48.140;11.488;2023-06-10T01:19:32;9.90;;;7.63;;
4430;SDS011;2228;48.140;11.488;2023-06-10T01:22:00;8.57;;;6.53;;
4430;SDS011;2228;48.140;11.488;2023-06-10T01:24:27;9.38;;;7.18;;
4430;SDS011;2228;48.140;11.488;2023-06-10T01:26:58;7.30;;;6.60;;
4430;SDS011;2228;48.140;11.488;2023-06-10T01:29:28;9.45;;;7.95;;
4430;SDS011;2228;48.140;11.488;2023-06-10T01:32:01;10.35;;;7.50;;
4430;SDS011;2228;48.140;11.488;2023-06-10T01:34:32;9.32;;;7.70;;
4430;SDS011;2228;48.140;11.488;2023-06-10T01:37:01;9.48;;;8.10;;
4430;SDS011;2228;48.140;11.488;2023-06-10T01:39:30;11.88;;;8.25;;
4430;SDS011;2228;48.140;11.488;2023-06-10T01:41:58;11.33;;;8.60;;
4430;SDS011;2228;48.140;11.488;2023-06-10T01:44:27;9.88;;;7.65;;
4430;SDS011;2228;48.140;11.488;2023-06-10T01:46:54;10.88;;;8.38;;
4430;SDS011;2228;48.140;11.488;2023-06-10T01:49:21;10.23;;;8.30;;
4430;SDS011;2228;48.140;11.488;2023-06-10T01:51:49;11.48;;;8.48;;
4430;SDS011;2228;48.140;11.488;2023-06-10T01:54:17;10.20;;;8.10;;
4430;SDS011;2228;48.140;11.488;2023-06-10T01:56:44;13.00;;;8.63;;
4430;SDS011;2228;48.140;11.488;2023-06-10T01:59:11;9.55;;;8.55;;
4430;SDS011;2228;48.140;11.488;2023-06-10T02:01:38;9.70;;;8.40;;
4430;SDS011;2228;48.140;11.488;2023-06-10T02:04:05;12.40;;;8.00;;
4430;SDS011;2228;48.140;11.488;2023-06-10T02:06:32;11.77;;;8.60;;
4430;SDS011;2228;48.140;11.488;2023-06-10T02:08:59;10.43;;;7.95;;
4430;SDS011;2228;48.140;11.488;2023-06-10T02:11:28;10.15;;;8.88;;
4430;SDS011;2228;48.140;11.488;2023-06-10T02:13:55;11.50;;;8.93;;
4430;SDS011;2228;48.140;11.488;2023-06-10T02:16:21;11.00;;;9.05;;
4430;SDS011;2228;48.140;11.488;2023-06-10T02:18:49;12.55;;;9.45;;
4430;SDS011;2228;48.140;11.488;2023-06-10T02:21:15;11.95;;;9.43;;
4430;SDS011;2228;48.140;11.488;2023-06-10T02:23:42;11.15;;;8.90;;
4430;SDS011;2228;48.140;11.488;2023-06-10T02:26:09;9.77;;;8.77;;
4430;SDS011;2228;48.140;11.488;2023-06-10T02:28:37;11.20;;;9.30;;
4430;SDS011;2228;48.140;11.488;2023-06-10T02:31:04;12.18;;;9.27;;
4430;SDS011;2228;48.140;11.488;2023-06-10T02:33:32;12.25;;;9.18;;
4430;SDS011;2228;48.140;11.488;2023-06-10T02:35:58;11.07;;;9.73;;
4430;SDS011;2228;48.140;11.488;2023-06-10T02:38:26;10.60;;;9.32;;
4430;SDS011;2228;48.140;11.488;2023-06-10T02:40:53;15.63;;;10.00;;
4430;SDS011;2228;48.140;11.488;2023-06-10T02:43:20;14.70;;;10.25;;
4430;SDS011;2228;48.140;11.488;2023-06-10T02:45:48;12.40;;;10.30;;
4430;SDS011;2228;48.140;11.488;2023-06-10T02:48:15;13.38;;;11.20;;
4430;SDS011;2228;48.140;11.488;2023-06-10T02:50:42;14.77;;;10.50;;
4430;SDS011;2228;48.140;11.488;2023-06-10T02:53:08;13.23;;;9.90;;
4430;SDS011;2228;48.140;11.488;2023-06-10T02:55:35;13.93;;;10.40;;
4430;SDS011;2228;48.140;11.488;2023-06-10T02:58:03;11.88;;;9.30;;
4430;SDS011;2228;48.140;11.488;2023-06-10T03:00:30;12.30;;;10.25;;
4430;SDS011;2228;48.140;11.488;2023-06-10T03:02:58;13.60;;;9.85;;
4430;SDS011;2228;48.140;11.488;2023-06-10T03:05:28;12.88;;;9.80;;
4430;SDS011;2228;48.140;11.488;2023-06-10T03:07:55;11.85;;;9.60;;
4430;SDS011;2228;48.140;11.488;2023-06-10T03:10:22;12.93;;;10.55;;
4430;SDS011;2228;48.140;11.488;2023-06-10T03:12:49;12.90;;;9.75;;
4430;SDS011;2228;48.140;11.488;2023-06-10T03:15:16;12.60;;;9.93;;
4430;SDS011;2228;48.140;11.488;2023-06-10T03:17:42;12.15;;;10.00;;
4430;SDS011;2228;48.140;11.488;2023-06-10T03:20:11;12.20;;;10.20;;
4430;SDS011;2228;48.140;11.488;2023-06-10T03:22:40;12.75;;;10.52;;
4430;SDS011;2228;48.140;11.488;2023-06-10T03:25:08;12.80;;;11.13;;
4430;SDS011;2228;48.140;11.488;2023-06-10T03:27:38;15.10;;;11.60;;
4430;SDS011;2228;48.140;11.488;2023-06-10T03:30:06;13.60;;;11.30;;
4430;SDS011;2228;48.140;11.488;2023-06-10T03:32:34;17.88;;;12.15;;
4430;SDS011;2228;48.140;11.488;2023-06-10T03:35:01;15.75;;;11.75;;
4430;SDS011;2228;48.140;11.488;2023-06-10T03:37:30;14.82;;;11.43;;
4430;SDS011;2228;48.140;11.488;2023-06-10T03:39:57;14.10;;;11.00;;
4430;SDS011;2228;48.140;11.488;2023-06-10T03:42:24;12.98;;;10.00;;
4430;SDS011;2228;48.140;11.488;2023-06-10T03:44:51;14.93;;;11.30;;
4430;SDS011;2228;48.140;11.488;2023-06-10T03:47:17;14.70;;;10.50;;
4430;SDS011;2228;48.140;11.488;2023-06-10T03:49:44;14.50;;;11.75;;
4430;SDS011;2228;48.140;11.488;2023-06-10T03:52:11;15.75;;;11.73;;
4430;SDS011;2228;48.140;11.488;2023-06-10T03:54:39;14.05;;;10.70;;
4430;SDS011;2228;48.140;11.488;2023-06-10T03:57:06;13.90;;;11.02;;
4430;SDS011;2228;48.140;11.488;2023-06-10T03:59:33;14.10;;;12.38;;
4430;SDS011;2228;48.140;11.488;2023-06-10T04:02:00;15.00;;;12.13;;
4430;SDS011;2228;48.140;11.488;2023-06-10T04:04:27;14.18;;;11.60;;
4430;SDS011;2228;48.140;11.488;2023-06-10T04:06:54;14.82;;;11.88;;
4430;SDS011;2228;48.140;11.488;2023-06-10T04:09:21;16.85;;;12.50;;
4430;SDS011;2228;48.140;11.488;2023-06-10T04:11:49;19.13;;;12.15;;
4430;SDS011;2228;48.140;11.488;2023-06-10T04:14:16;16.80;;;11.73;;
4430;SDS011;2228;48.140;11.488;2023-06-10T04:16:43;18.38;;;11.98;;
4430;SDS011;2228;48.140;11.488;2023-06-10T04:19:10;15.60;;;11.65;;
4430;SDS011;2228;48.140;11.488;2023-06-10T04:21:37;14.10;;;11.77;;
4430;SDS011;2228;48.140;11.488;2023-06-10T04:24:04;16.15;;;12.18;;
4430;SDS011;2228;48.140;11.488;2023-06-10T04:26:31;14.38;;;11.57;;
4430;SDS011;2228;48.140;11.488;2023-06-10T04:29:00;15.43;;;12.60;;
4430;SDS011;2228;48.140;11.488;2023-06-10T04:31:27;16.67;;;11.75;;
4430;SDS011;2228;48.140;11.488;2023-06-10T04:33:54;15.60;;;12.23;;
4430;SDS011;2228;48.140;11.488;2023-06-10T04:36:20;14.80;;;11.77;;
4430;SDS011;2228;48.140;11.488;2023-06-10T04:38:48;13.95;;;11.88;;
4430;SDS011;2228;48.140;11.488;2023-06-10T04:41:17;13.20;;;11.15;;
4430;SDS011;2228;48.140;11.488;2023-06-10T04:43:44;15.00;;;12.00;;
4430;SDS011;2228;48.140;11.488;2023-06-10T04:46:12;13.65;;;11.68;;
4430;SDS011;2228;48.140;11.488;2023-06-10T04:48:39;14.35;;;11.48;;
4430;SDS011;2228;48.140;11.488;2023-06-10T04:51:07;15.10;;;12.00;;
4430;SDS011;2228;48.140;11.488;2023-06-10T04:53:34;14.73;;;12.10;;
4430;SDS011;2228;48.140;11.488;2023-06-10T04:56:01;14.65;;;11.65;;
4430;SDS011;2228;48.140;11.488;2023-06-10T04:58:28;16.42;;;12.40;;
4430;SDS011;2228;48.140;11.488;2023-06-10T05:00:55;16.00;;;12.00;;
4430;SDS011;2228;48.140;11.488;2023-06-10T05:03:23;14.77;;;12.10;;
4430;SDS011;2228;48.140;11.488;2023-06-10T05:05:50;13.68;;;10.98;;
4430;SDS011;2228;48.140;11.488;2023-06-10T05:08:19;12.50;;;10.88;;
4430;SDS011;2228;48.140;11.488;2023-06-10T05:10:46;15.43;;;10.90;;
4430;SDS011;2228;48.140;11.488;2023-06-10T05:13:13;15.05;;;10.73;;
4430;SDS011;2228;48.140;11.488;2023-06-10T05:15:40;12.73;;;10.95;;
4430;SDS011;2228;48.140;11.488;2023-06-10T05:18:09;13.73;;;11.00;;
4430;SDS011;2228;48.140;11.488;2023-06-10T05:20:38;12.77;;;10.93;;
4430;SDS011;2228;48.140;11.488;2023-06-10T05:23:05;13.30;;;10.47;;
4430;SDS011;2228;48.140;11.488;2023-06-10T05:25:32;11.77;;;10.00;;
4430;SDS011;2228;48.140;11.488;2023-06-10T05:28:00;12.50;;;10.30;;
4430;SDS011;2228;48.140;11.488;2023-06-10T05:30:27;15.02;;;11.77;;
4430;SDS011;2228;48.140;11.488;2023-06-10T05:32:54;14.73;;;11.13;;
4430;SDS011;2228;48.140;11.488;2023-06-10T05:35:21;14.15;;;10.32;;
4430;SDS011;2228;48.140;11.488;2023-06-10T05:37:50;13.43;;;10.77;;
4430;SDS011;2228;48.140;11.488;2023-06-10T05:40:16;12.00;;;10.70;;
4430;SDS011;2228;48.140;11.488;2023-06-10T05:42:43;13.25;;;11.10;;
4430;SDS011;2228;48.140;11.488;2023-06-10T05:45:10;12.25;;;10.30;;
4430;SDS011;2228;48.140;11.488;2023-06-10T05:47:38;12.80;;;10.18;;
4430;SDS011;2228;48.140;11.488;2023-06-10T05:50:05;11.57;;;10.15;;
4430;SDS011;2228;48.140;11.488;2023-06-10T05:52:33;11.82;;;9.93;;
4430;SDS011;2228;48.140;11.488;2023-06-10T05:55:02;10.35;;;9.20;;
4430;SDS011;2228;48.140;11.488;2023-06-10T05:57:29;12.23;;;9.95;;
4430;SDS011;2228;48.140;11.488;2023-06-10T05:59:56;12.10;;;10.40;;
4430;SDS011;2228;48.140;11.488;2023-06-10T06:02:23;13.50;;;10.63;;
4430;SDS011;2228;48.140;11.488;2023-06-10T06:04:50;11.30;;;10.00;;
4430;SDS011;2228;48.140;11.488;2023-06-10T06:07:16;12.30;;;10.50;;
4430;SDS011;2228;48.140;11.488;2023-06-10T06:09:45;12.85;;;10.23;;
4430;SDS011;2228;48.140;11.488;2023-06-10T06:12:14;11.50;;;9.40;;
4430;SDS011;2228;48.140;11.488;2023-06-10T06:14:40;10.75;;;9.27;;
4430;SDS011;2228;48.140;11.488;2023-06-10T06:17:07;11.55;;;10.07;;
4430;SDS011;2228;48.140;11.488;2023-06-10T06:19:34;11.18;;;9.68;;
4430;SDS011;2228;48.140;11.488;2023-06-10T06:22:01;12.80;;;10.13;;
4430;SDS011;2228;48.140;11.488;2023-06-10T06:24:28;11.50;;;9.00;;
4430;SDS011;2228;48.140;11.488;2023-06-10T06:26:55;11.10;;;9.35;;
4430;SDS011;2228;48.140;11.488;2023-06-10T06:29:24;12.23;;;9.43;;
4430;SDS011;2228;48.140;11.488;2023-06-10T06:31:51;10.95;;;9.50;;
4430;SDS011;2228;48.140;11.488;2023-06-10T06:34:18;10.77;;;8.48;;
4430;SDS011;2228;48.140;11.488;2023-06-10T06:36:44;10.25;;;8.88;;
4430;SDS011;2228;48.140;11.488;2023-06-10T06:39:11;11.17;;;8.97;;
4430;SDS011;2228;48.140;11.488;2023-06-10T06:41:38;10.80;;;8.40;;
4430;SDS011;2228;48.140;11.488;2023-06-10T06:44:05;13.73;;;8.90;;
4430;SDS011;2228;48.140;11.488;2023-06-10T06:46:34;10.10;;;8.80;;
4430;SDS011;2228;48.140;11.488;2023-06-10T06:49:01;10.60;;;8.80;;
4430;SDS011;2228;48.140;11.488;2023-06-10T06:51:28;11.43;;;9.13;;
4430;SDS011;2228;48.140;11.488;2023-06-10T06:53:55;12.18;;;8.77;;
4430;SDS011;2228;48.140;11.488;2023-06-10T06:56:23;11.60;;;9.82;;
4430;SDS011;2228;48.140;11.488;2023-06-10T06:58:52;10.45;;;9.13;;
4430;SDS011;2228;48.140;11.488;2023-06-10T07:01:19;11.25;;;9.43;;
4430;SDS011;2228;48.140;11.488;2023-06-10T07:03:47;10.05;;;8.80;;
4430;SDS011;2228;48.140;11.488;2023-06-10T07:06:14;10.00;;;8.40;;
4430;SDS011;2228;48.140;11.488;2023-06-10T07:08:41;9.68;;;8.00;;
4430;SDS011;2228;48.140;11.488;2023-06-10T07:11:12;10.20;;;8.00;;
4430;SDS011;2228;48.140;11.488;2023-06-10T07:13:39;10.13;;;8.60;;
4430;SDS011;2228;48.140;11.488;2023-06-10T07:16:07;9.10;;;8.10;;
4430;SDS011;2228;48.140;11.488;2023-06-10T07:18:34;9.23;;;8.23;;
4430;SDS011;2228;48.140;11.488;2023-06-10T07:21:05;11.05;;;8.60;;
4430;SDS011;2228;48.140;11.488;2023-06-10T07:23:32;9.85;;;8.60;;
4430;SDS011;2228;48.140;11.488;2023-06-10T07:25:59;9.57;;;8.38;;
4430;SDS011;2228;48.140;11.488;2023-06-10T07:28:26;9.38;;;8.30;;
4430;SDS011;2228;48.140;11.488;2023-06-10T07:30:53;10.43;;;8.63;;
4430;SDS011;2228;48.140;11.488;2023-06-10T07:33:20;8.68;;;7.32;;
4430;SDS011;2228;48.140;11.488;2023-06-10T07:35:47;8.13;;;7.32;;
4430;SDS011;2228;48.140;11.488;2023-06-10T07:38:16;9.80;;;7.60;;
4430;SDS011;2228;48.140;11.488;2023-06-10T07:40:43;10.40;;;7.50;;
4430;SDS011;2228;48.140;11.488;2023-06-10T07:43:10;8.57;;;7.65;;
4430;SDS011;2228;48.140;11.488;2023-06-10T07:45:39;9.55;;;7.00;;
4430;SDS011;2228;48.140;11.488;2023-06-10T07:48:09;8.15;;;6.50;;
4430;SDS011;2228;48.140;11.488;2023-06-10T07:50:37;9.00;;;5.97;;
4430;SDS011;2228;48.140;11.488;2023-06-10T07:53:04;7.65;;;5.57;;
4430;SDS011;2228;48.140;11.488;2023-06-10T07:55:32;8.05;;;6.40;;
4430;SDS011;2228;48.140;11.488;2023-06-10T07:58:00;5.82;;;5.22;;
4430;SDS011;2228;48.140;11.488;2023-06-10T08:00:27;6.78;;;5.93;;
4430;SDS011;2228;48.140;11.488;2023-06-10T08:02:54;5.90;;;5.30;;
4430;SDS011;2228;48.140;11.488;2023-06-10T08:05:21;5.38;;;4.75;;
4430;SDS011;2228;48.140;11.488;2023-06-10T08:07:48;4.90;;;4.40;;
4430;SDS011;2228;48.140;11.488;2023-06-10T08:10:15;5.80;;;4.80;;
4430;SDS011;2228;48.140;11.488;2023-06-10T08:12:46;6.72;;;5.53;;
4430;SDS011;2228;48.140;11.488;2023-06-10T08:15:13;5.70;;;5.20;;
4430;SDS011;2228;48.140;11.488;2023-06-10T08:17:40;6.00;;;4.13;;
4430;SDS011;2228;48.140;11.488;2023-06-10T08:20:09;4.78;;;4.28;;
4430;SDS011;2228;48.140;11.488;2023-06-10T08:22:36;4.75;;;4.35;;
4430;SDS011;2228;48.140;11.488;2023-06-10T08:25:04;4.57;;;3.40;;
4430;SDS011;2228;48.140;11.488;2023-06-10T08:27:32;3.08;;;2.88;;
4430;SDS011;2228;48.140;11.488;2023-06-10T08:30:00;3.60;;;3.20;;
4430;SDS011;2228;48.140;11.488;2023-06-10T08:32:27;3.63;;;3.03;;
4430;SDS011;2228;48.140;11.488;2023-06-10T08:34:56;4.07;;;3.67;;
4430;SDS011;2228;48.140;11.488;2023-06-10T08:37:23;3.87;;;3.57;;
4430;SDS011;2228;48.140;11.488;2023-06-10T08:39:50;3.80;;;3.50;;
4430;SDS011;2228;48.140;11.488;2023-06-10T08:42:19;4.68;;;3.83;;
4430;SDS011;2228;48.140;11.488;2023-06-10T08:44:50;5.05;;;3.90;;
4430;SDS011;2228;48.140;11.488;2023-06-10T08:47:22;5.10;;;4.20;;
4430;SDS011;2228;48.140;11.488;2023-06-10T08:49:50;4.90;;;4.30;;
4430;SDS011;2228;48.140;11.488;2023-06-10T08:52:19;8.00;;;3.85;;
4430;SDS011;2228;48.140;11.488;2023-06-10T08:54:48;3.70;;;3.40;;
4430;SDS011;2228;48.140;11.488;2023-06-10T08:57:18;4.32;;;3.92;;
4430;SDS011;2228;48.140;11.488;2023-06-10T08:59:59;5.60;;;3.70;;
4430;SDS011;2228;48.140;11.488;2023-06-10T09:03:08;4.60;;;4.20;;
4430;SDS011;2228;48.140;11.488;2023-06-10T09:05:35;4.90;;;3.73;;
4430;SDS011;2228;48.140;11.488;2023-06-10T09:08:06;5.10;;;4.13;;
4430;SDS011;2228;48.140;11.488;2023-06-10T09:10:34;4.53;;;4.03;;
4430;SDS011;2228;48.140;11.488;2023-06-10T09:13:01;4.57;;;4.18;;
4430;SDS011;2228;48.140;11.488;2023-06-10T09:15:28;4.78;;;3.95;;
4430;SDS011;2228;48.140;11.488;2023-06-10T09:17:55;4.40;;;4.00;;
4430;SDS011;2228;48.140;11.488;2023-06-10T09:20:23;4.70;;;4.30;;
4430;SDS011;2228;48.140;11.488;2023-06-10T09:22:50;5.50;;;4.00;;
4430;SDS011;2228;48.140;11.488;2023-06-10T09:25:18;3.90;;;3.60;;
4430;SDS011;2228;48.140;11.488;2023-06-10T09:27:45;3.80;;;3.40;;
4430;SDS011;2228;48.140;11.488;2023-06-10T09:30:24;4.00;;;3.70;;
4430;SDS011;2228;48.140;11.488;2023-06-10T09:32:52;4.60;;;3.90;;
4430;SDS011;2228;48.140;11.488;2023-06-10T09:35:21;4.78;;;4.28;;
4430;SDS011;2228;48.140;11.488;2023-06-10T09:37:51;5.05;;;4.00;;
4430;SDS011;2228;48.140;11.488;2023-06-10T09:40:18;5.20;;;4.20;;
4430;SDS011;2228;48.140;11.488;2023-06-10T09:42:45;4.80;;;4.30;;
4430;SDS011;2228;48.140;11.488;2023-06-10T09:45:18;6.63;;;4.40;;
4430;SDS011;2228;48.140;11.488;2023-06-10T09:47:45;5.07;;;4.50;;
4430;SDS011;2228;48.140;11.488;2023-06-10T09:50:12;3.83;;;3.53;;
4430;SDS011;2228;48.140;11.488;2023-06-10T09:52:41;3.80;;;3.50;;
4430;SDS011;2228;48.140;11.488;2023-06-10T09:55:08;4.30;;;3.90;;
4430;SDS011;2228;48.140;11.488;2023-06-10T09:57:36;4.10;;;3.60;;
4430;SDS011;2228;48.140;11.488;2023-06-10T10:00:04;4.30;;;3.90;;
4430;SDS011;2228;48.140;11.488;2023-06-10T10:02:33;3.90;;;3.50;;
4430;SDS011;2228;48.140;11.488;2023-06-10T10:05:12;3.30;;;3.10;;
4430;SDS011;2228;48.140;11.488;2023-06-10T10:07:40;3.35;;;3.05;;
4430;SDS011;2228;48.140;11.488;2023-06-10T10:10:07;4.07;;;3.10;;
4430;SDS011;2228;48.140;11.488;2023-06-10T10:12:35;3.58;;;3.28;;
4430;SDS011;2228;48.140;11.488;2023-06-10T10:15:04;3.50;;;3.30;;
4430;SDS011;2228;48.140;11.488;2023-06-10T10:17:34;3.70;;;3.40;;
4430;SDS011;2228;48.140;11.488;2023-06-10T10:20:04;3.25;;;3.05;;
4430;SDS011;2228;48.140;11.488;2023-06-10T10:22:34;3.20;;;3.00;;
4430;SDS011;2228;48.140;11.488;2023-06-10T10:25:07;4.20;;;3.25;;
4430;SDS011;2228;48.140;11.488;2023-06-10T10:27:40;3.60;;;2.90;;
4430;SDS011;2228;48.140;11.488;2023-06-10T10:30:10;2.90;;;2.70;;
4430;SDS011;2228;48.140;11.488;2023-06-10T10:32:38;3.20;;;3.00;;
4430;SDS011;2228;48.140;11.488;2023-06-10T10:35:12;3.95;;;2.80;;
4430;SDS011;2228;48.140;11.488;2023-06-10T10:37:42;3.22;;;2.70;;
4430;SDS011;2228;48.140;11.488;2023-06-10T10:40:11;3.13;;;2.90;;
4430;SDS011;2228;48.140;11.488;2023-06-10T10:42:39;3.20;;;2.90;;
4430;SDS011;2228;48.140;11.488;2023-06-10T10:45:07;2.60;;;2.40;;
4430;SDS011;2228;48.140;11.488;2023-06-10T10:47:36;2.33;;;2.23;;
4430;SDS011;2228;48.140;11.488;2023-06-10T10:50:12;2.30;;;2.20;;
4430;SDS011;2228;48.140;11.488;2023-06-10T10:52:52;2.35;;;2.15;;
4430;SDS011;2228;48.140;11.488;2023-06-10T10:55:22;4.10;;;2.30;;
4430;SDS011;2228;48.140;11.488;2023-06-10T10:57:54;3.30;;;2.10;;
4430;SDS011;2228;48.140;11.488;2023-06-10T11:00:28;2.30;;;1.90;;
4430;SDS011;2228;48.140;11.488;2023-06-10T11:03:02;2.10;;;1.70;;
4430;SDS011;2228;48.140;11.488;2023-06-10T11:05:36;2.40;;;2.00;;
4430;SDS011;2228;48.140;11.488;2023-06-10T11:08:04;2.40;;;2.20;;
4430;SDS011;2228;48.140;11.488;2023-06-10T11:10:34;2.85;;;2.55;;
4430;SDS011;2228;48.140;11.488;2023-06-10T11:13:05;3.20;;;3.00;;
4430;SDS011;2228;48.140;11.488;2023-06-10T11:15:37;3.75;;;2.85;;
4430;SDS011;2228;48.140;11.488;2023-06-10T11:18:12;4.40;;;4.00;;
4430;SDS011;2228;48.140;11.488;2023-06-10T11:20:44;8.17;;;6.97;;
4430;SDS011;2228;48.140;11.488;2023-06-10T11:23:38;63.70;;;49.67;;
4430;SDS011;2228;48.140;11.488;2023-06-10T11:26:17;15.05;;;12.65;;
4430;SDS011;2228;48.140;11.488;2023-06-10T11:29:02;31.08;;;20.25;;
4430;SDS011;2228;48.140;11.488;2023-06-10T11:31:30;4.43;;;3.60;;
4430;SDS011;2228;48.140;11.488;2023-06-10T11:33:59;2.60;;;2.40;;
4430;SDS011;2228;48.140;11.488;2023-06-10T11:36:28;5.78;;;3.22;;
4430;SDS011;2228;48.140;11.488;2023-06-10T11:38:56;3.30;;;3.00;;
4430;SDS011;2228;48.140;11.488;2023-06-10T11:41:26;3.38;;;3.08;;
4430;SDS011;2228;48.140;11.488;2023-06-10T11:43:54;3.83;;;3.42;;
4430;SDS011;2228;48.140;11.488;2023-06-10T11:46:22;6.55;;;4.50;;
4430;SDS011;2228;48.140;11.488;2023-06-10T11:48:49;7.30;;;6.53;;
4430;SDS011;2228;48.140;11.488;2023-06-10T11:51:17;7.45;;;6.53;;
4430;SDS011;2228;48.140;11.488;2023-06-10T11:53:44;5.40;;;3.40;;
4430;SDS011;2228;48.140;11.488;2023-06-10T11:56:11;6.75;;;5.93;;
4430;SDS011;2228;48.140;11.488;2023-06-10T11:58:40;5.00;;;4.10;;
4430;SDS011;2228;48.140;11.488;2023-06-10T12:01:11;8.18;;;5.07;;
4430;SDS011;2228;48.140;11.488;2023-06-10T12:03:47;4.30;;;3.90;;
4430;SDS011;2228;48.140;11.488;2023-06-10T12:06:14;3.40;;;3.10;;
4430;SDS011;2228;48.140;11.488;2023-06-10T12:08:41;2.95;;;2.33;;
4430;SDS011;2228;48.140;11.488;2023-06-10T12:11:09;4.35;;;3.10;;
4430;SDS011;2228;48.140;11.488;2023-06-10T12:13:36;2.50;;;2.30;;
4430;SDS011;2228;48.140;11.488;2023-06-10T12:16:13;2.40;;;2.17;;
4430;SDS011;2228;48.140;11.488;2023-06-10T12:18:41;2.53;;;2.30;;
4430;SDS011;2228;48.140;11.488;2023-06-10T12:21:16;2.40;;;2.30;;
4430;SDS011;2228;48.140;11.488;2023-06-10T12:24:06;3.00;;;2.55;;
4430;SDS011;2228;48.140;11.488;2023-06-10T12:26:37;2.50;;;2.40;;
4430;SDS011;2228;48.140;11.488;2023-06-10T12:29:18;3.17;;;2.85;;
4430;SDS011;2228;48.140;11.488;2023-06-10T12:31:59;2.50;;;2.30;;
4430;SDS011;2228;48.140;11.488;2023-06-10T12:34:35;2.60;;;2.40;;
4430;SDS011;2228;48.140;11.488;2023-06-10T12:37:04;2.17;;;2.08;;
4430;SDS011;2228;48.140;11.488;2023-06-10T12:39:31;2.00;;;1.90;;
4430;SDS011;2228;48.140;11.488;2023-06-10T12:41:59;2.90;;;2.10;;
4430;SDS011;2228;48.140;11.488;2023-06-10T12:44:31;2.42;;;2.22;;
4430;SDS011;2228;48.140;11.488;2023-06-10T12:47:00;2.28;;;2.10;;
4430;SDS011;2228;48.140;11.488;2023-06-10T12:49:32;1.98;;;1.88;;
4430;SDS011;2228;48.140;11.488;2023-06-10T12:52:00;2.00;;;1.90;;
4430;SDS011;2228;48.140;11.488;2023-06-10T12:54:27;2.50;;;2.20;;
4430;SDS011;2228;48.140;11.488;2023-06-10T12:56:54;2.08;;;1.98;;
4430;SDS011;2228;48.140;11.488;2023-06-10T12:59:21;2.70;;;2.20;;
4430;SDS011;2228;48.140;11.488;2023-06-10T13:01:52;2.00;;;1.90;;
4430;SDS011;2228;48.140;11.488;2023-06-10T13:04:21;2.55;;;2.38;;
4430;SDS011;2228;48.140;11.488;2023-06-10T13:06:48;2.28;;;2.08;;
4430;SDS011;2228;48.140;11.488;2023-06-10T13:09:15;2.13;;;2.03;;
4430;SDS011;2228;48.140;11.488;2023-06-10T13:11:42;2.33;;;2.20;;
4430;SDS011;2228;48.140;11.488;2023-06-10T13:14:10;2.10;;;1.90;;
4430;SDS011;2228;48.140;11.488;2023-06-10T13:16:37;2.22;;;2.03;;
4430;SDS011;2228;48.140;11.488;2023-06-10T13:19:04;4.10;;;2.80;;
4430;SDS011;2228;48.140;11.488;2023-06-10T13:21:33;3.05;;;2.85;;
4430;SDS011;2228;48.140;11.488;2023-06-10T13:24:00;3.88;;;2.70;;
4430;SDS011;2228;48.140;11.488;2023-06-10T13:26:28;2.80;;;2.60;;
4430;SDS011;2228;48.140;11.488;2023-06-10T13:28:55;3.40;;;2.70;;
4430;SDS011;2228;48.140;11.488;2023-06-10T13:31:22;2.95;;;2.65;;
4430;SDS011;2228;48.140;11.488;2023-06-10T13:33:50;3.30;;;2.67;;
4430;SDS011;2228;48.140;11.488;2023-06-10T13:36:17;2.80;;;2.50;;
4430;SDS011;2228;48.140;11.488;2023-06-10T13:38:45;3.10;;;2.90;;
4430;SDS011;2228;48.140;11.488;2023-06-10T13:41:12;2.70;;;2.50;;
4430;SDS011;2228;48.140;11.488;2023-06-10T13:43:39;2.50;;;2.30;;
4430;SDS011;2228;48.140;11.488;2023-06-10T13:46:07;4.10;;;2.55;;
4430;SDS011;2228;48.140;11.488;2023-06-10T13:48:34;2.78;;;2.58;;
4430;SDS011;2228;48.140;11.488;2023-06-10T13:51:01;3.60;;;2.70;;
4430;SDS011;2228;48.140;11.488;2023-06-10T13:53:28;3.50;;;3.00;;
4430;SDS011;2228;48.140;11.488;2023-06-10T13:55:56;3.13;;;2.90;;
4430;SDS011;2228;48.140;11.488;2023-06-10T13:58:23;3.10;;;2.90;;
4430;SDS011;2228;48.140;11.488;2023-06-10T14:00:51;3.67;;;2.40;;
4430;SDS011;2228;48.140;11.488;2023-06-10T14:03:19;3.20;;;2.53;;
4430;SDS011;2228;48.140;11.488;2023-06-10T14:05:46;2.60;;;2.40;;
4430;SDS011;2228;48.140;11.488;2023-06-10T14:08:13;2.20;;;2.10;;
4430;SDS011;2228;48.140;11.488;2023-06-10T14:10:40;2.25;;;2.05;;
4430;SDS011;2228;48.140;11.488;2023-06-10T14:13:08;2.60;;;2.40;;
4430;SDS011;2228;48.140;11.488;2023-06-10T14:15:35;2.60;;;2.40;;
4430;SDS011;2228;48.140;11.488;2023-06-10T14:18:03;2.20;;;2.00;;
4430;SDS011;2228;48.140;11.488;2023-06-10T14:20:30;2.25;;;2.15;;
4430;SDS011;2228;48.140;11.488;2023-06-10T14:22:57;2.90;;;2.70;;
4430;SDS011;2228;48.140;11.488;2023-06-10T14:25:24;2.78;;;2.40;;
4430;SDS011;2228;48.140;11.488;2023-06-10T14:27:51;2.40;;;2.30;;
4430;SDS011;2228;48.140;11.488;2023-06-10T14:30:19;2.30;;;2.10;;
4430;SDS011;2228;48.140;11.488;2023-06-10T14:32:46;2.50;;;2.40;;
4430;SDS011;2228;48.140;11.488;2023-06-10T14:35:13;2.60;;;2.40;;
4430;SDS011;2228;48.140;11.488;2023-06-10T14:37:40;2.15;;;2.05;;
4430;SDS011;2228;48.140;11.488;2023-06-10T14:40:08;2.80;;;2.20;;
4430;SDS011;2228;48.140;11.488;2023-06-10T14:42:36;2.50;;;2.30;;
4430;SDS011;2228;48.140;11.488;2023-06-10T14:45:03;3.30;;;2.40;;
4430;SDS011;2228;48.140;11.488;2023-06-10T14:47:33;3.70;;;2.90;;
4430;SDS011;2228;48.140;11.488;2023-06-10T14:50:00;2.30;;;2.10;;
4430;SDS011;2228;48.140;11.488;2023-06-10T14:52:29;2.10;;;2.00;;
4430;SDS011;2228;48.140;11.488;2023-06-10T14:54:59;2.45;;;2.17;;
4430;SDS011;2228;48.140;11.488;2023-06-10T14:57:28;2.20;;;2.00;;
4430;SDS011;2228;48.140;11.488;2023-06-10T14:59:57;1.88;;;1.75;;